Terminal Aerodrome Forecast
Issued by NWS

Home | Current Version | Previous Version | Text Only | Print | Product List | Glossary On
Versions: 1 2 3 4 5 6 7 8 9 10 11 12 13 14 15 16 17 18 19 20 21 22 23 24 25 26 27 28 29 30 31 32 33 34 35 36 37 38 39 40
000
FTAK31 PANC 300915 AAA
TAFACD
TAF AMD
PACD 300915Z 3009/3106 30011KT P6SM VCSH FEW006 SCT015 OVC025
      TEMPO 3009/3012 SCT006 BKN015
     FM301800 27008KT P6SM VCSH SCT025 BKN035=

USA.gov is the U.S. government's official web portal to all federal, state and local government web resources and services.